createdAt,value
2022-07-29T00:03:07.323Z,99537.70
2022-07-29T00:05:59.590Z,99537.42
2022-07-29T00:08:53.093Z,99537.10
2022-07-29T00:11:45.765Z,99535.37
2022-07-29T00:14:30.943Z,99534.11
2022-07-29T00:17:23.293Z,99531.95
2022-07-29T00:20:15.712Z,99530.47
2022-07-29T00:23:08.160Z,99534.48
2022-07-29T00:26:06.009Z,99536.87
2022-07-29T00:29:30.764Z,99541.06
2022-07-29T00:31:50.358Z,99541.21
2022-07-29T00:35:01.085Z,99543.85
2022-07-29T00:37:53.458Z,99540.46
2022-07-29T00:40:35.615Z,99540.76
2022-07-29T00:43:28.265Z,99539.30
2022-07-29T00:46:20.369Z,99536.39
2022-07-29T00:49:13.091Z,99534.69
2022-07-29T00:52:06.034Z,99530.10
2022-07-29T00:54:58.706Z,99530.43
2022-07-29T00:57:52.046Z,99530.07
2022-07-29T01:00:45.550Z,99526.84
2022-07-29T01:03:37.735Z,99528.06
2022-07-29T01:06:30.357Z,99532.27
2022-07-29T01:09:42.890Z,99534.22
2022-07-29T01:12:37.874Z,99533.45
2022-07-29T01:15:29.133Z,99536.52
2022-07-29T01:18:26.270Z,99533.91
2022-07-29T01:21:42.382Z,99531.27
2022-07-29T01:24:53.886Z,99531.67
2022-07-29T01:28:03.604Z,99531.92
2022-07-29T01:30:58.251Z,99531.90
2022-07-29T01:33:57.179Z,99529.09
2022-07-29T01:36:53.240Z,99526.46
2022-07-29T01:39:47.984Z,99527.61
2022-07-29T01:42:44.803Z,99523.77
2022-07-29T01:45:42.358Z,99523.91
2022-07-29T01:48:41.477Z,99524.63
2022-07-29T01:51:38.132Z,99520.10
2022-07-29T01:54:34.609Z,99520.90
2022-07-29T01:57:30.416Z,99528.66
2022-07-29T02:00:23.184Z,99528.81
2022-07-29T02:03:17.857Z,99528.09
2022-07-29T02:06:12.038Z,99528.91
2022-07-29T02:09:05.521Z,99531.80
2022-07-29T02:12:04.098Z,99525.98
2022-07-29T02:14:59.643Z,99522.21
2022-07-29T02:17:57.222Z,99521.41
2022-07-29T02:20:42.538Z,99525.64
2022-07-29T02:23:51.065Z,99524.92
2022-07-29T02:26:45.520Z,99525.94
2022-07-29T02:29:39.369Z,99521.50
2022-07-29T02:32:33.582Z,99515.35
2022-07-29T02:35:26.710Z,99514.24
2022-07-29T02:38:37.491Z,99509.09
2022-07-29T02:41:33.139Z,99512.71
2022-07-29T02:44:34.157Z,99508.30
2022-07-29T02:47:41.131Z,99509.24
2022-07-29T02:50:39.176Z,99509.67
2022-07-29T02:53:35.466Z,99512.01
2022-07-29T02:56:35.985Z,99510.42
2022-07-29T02:59:33.117Z,99509.54
2022-07-29T03:02:27.704Z,99505.13
2022-07-29T03:05:22.973Z,99506.48
2022-07-29T03:08:17.359Z,99510.09
2022-07-29T03:11:11.274Z,99502.56
2022-07-29T03:13:46.282Z,99497.92
2022-07-29T03:16:41.271Z,99496.13
2022-07-29T03:19:33.997Z,99491.14
2022-07-29T03:22:26.435Z,99493.05
2022-07-29T03:25:20.020Z,99489.17
2022-07-29T03:28:12.174Z,99486.17
2022-07-29T03:30:58.055Z,99491.91
2022-07-29T03:33:51.261Z,99495.67
2022-07-29T03:36:43.335Z,99495.31
2022-07-29T03:39:40.834Z,99502.02
2022-07-29T03:42:34.743Z,99498.14
2022-07-29T03:45:27.789Z,99496.84
2022-07-29T03:48:22.935Z,99499.55
2022-07-29T03:51:15.222Z,99499.81
2022-07-29T03:54:14.067Z,99500.18
2022-07-29T03:57:07.949Z,99495.92
2022-07-29T04:00:00.842Z,99494.58
2022-07-29T04:02:53.004Z,99499.27
2022-07-29T04:05:45.053Z,99499.76
2022-07-29T04:08:37.596Z,99497.62
2022-07-29T04:11:29.688Z,99498.16
2022-07-29T04:14:23.070Z,99500.50
2022-07-29T04:17:15.050Z,99499.30
2022-07-29T04:20:09.417Z,99501.51
2022-07-29T04:23:01.428Z,99495.90
2022-07-29T04:25:53.415Z,99493.25
2022-07-29T04:28:45.665Z,99489.41
2022-07-29T04:31:37.879Z,99488.63
2022-07-29T04:34:29.943Z,99483.83
2022-07-29T04:37:22.051Z,99485.55
2022-07-29T04:40:14.941Z,99487.16
2022-07-29T04:43:07.285Z,99488.09
2022-07-29T04:45:59.490Z,99489.66
2022-07-29T04:48:51.851Z,99488.89
2022-07-29T04:51:44.110Z,99486.11
2022-07-29T04:54:36.176Z,99487.77
2022-07-29T04:57:28.258Z,99491.48
2022-07-29T05:00:14.577Z,99494.05
2022-07-29T05:03:06.730Z,99498.16
2022-07-29T05:05:58.902Z,99503.07
2022-07-29T05:08:50.983Z,99509.08
2022-07-29T05:11:42.953Z,99511.73
2022-07-29T05:14:24.781Z,99513.19
2022-07-29T05:17:16.751Z,99514.67
2022-07-29T05:20:10.707Z,99514.42
2022-07-29T05:23:03.865Z,99508.91
2022-07-29T05:25:47.266Z,99510.02
2022-07-29T05:28:39.267Z,99511.17
2022-07-29T05:31:31.370Z,99506.58
2022-07-29T05:34:23.462Z,99507.06
2022-07-29T05:37:15.658Z,99504.31
2022-07-29T05:40:09.387Z,99505.71
2022-07-29T05:43:01.354Z,99503.59
2022-07-29T05:45:53.353Z,99496.98
2022-07-29T05:48:45.494Z,99493.38
2022-07-29T05:51:37.792Z,99494.58
2022-07-29T05:54:29.771Z,99499.52
2022-07-29T05:57:24.029Z,99497.75
2022-07-29T06:00:17.577Z,99496.60
2022-07-29T06:03:09.672Z,99495.17
2022-07-29T06:06:01.674Z,99489.80
2022-07-29T06:08:53.747Z,99490.26
2022-07-29T06:11:45.740Z,99489.09
2022-07-29T06:14:39.003Z,99489.79
2022-07-29T06:17:30.979Z,99483.56
2022-07-29T06:20:15.289Z,99480.08
2022-07-29T06:23:07.427Z,99478.39
2022-07-29T06:25:59.618Z,99476.58
2022-07-29T06:28:52.247Z,99474.79
2022-07-29T06:31:44.306Z,99475.69
2022-07-29T06:34:36.418Z,99473.66
2022-07-29T06:37:28.543Z,99470.62
2022-07-29T06:40:41.290Z,99471.98
2022-07-29T06:43:52.274Z,99477.30
2022-07-29T06:46:48.154Z,99473.27
2022-07-29T06:49:40.213Z,99473.70
2022-07-29T06:52:32.370Z,99475.30
2022-07-29T06:55:25.112Z,99474.06
2022-07-29T06:58:19.023Z,99476.89
2022-07-29T07:01:10.677Z,99477.54
2022-07-29T07:04:06.544Z,99482.05
2022-07-29T07:06:58.977Z,99481.76
2022-07-29T07:09:49.534Z,99477.52
2022-07-29T07:12:41.549Z,99477.21
2022-07-29T07:15:39.774Z,99467.13
2022-07-29T07:18:32.378Z,99464.30
2022-07-29T07:21:07.219Z,99462.63
2022-07-29T07:23:59.247Z,99460.27
2022-07-29T07:26:51.478Z,99462.69
2022-07-29T07:29:44.429Z,99467.59
2022-07-29T07:32:36.638Z,99470.28
2022-07-29T07:35:29.852Z,99475.54
2022-07-29T07:38:22.969Z,99480.92
2022-07-29T07:41:16.014Z,99479.26
2022-07-29T07:44:11.773Z,99483.45
2022-07-29T07:46:48.940Z,99475.57
2022-07-29T07:49:41.712Z,99470.80
2022-07-29T07:52:34.094Z,99466.30
2022-07-29T07:55:27.040Z,99467.80
2022-07-29T07:58:17.742Z,99477.41
2022-07-29T08:00:49.806Z,99473.61
2022-07-29T08:03:41.913Z,99478.73
2022-07-29T08:06:35.915Z,99478.07
2022-07-29T08:09:30.634Z,99476.70
2022-07-29T08:12:22.881Z,99480.02
2022-07-29T08:14:57.672Z,99478.56
2022-07-29T08:17:38.432Z,99479.46
2022-07-29T08:20:31.041Z,99471.04
2022-07-29T08:23:23.829Z,99472.08
2022-07-29T08:26:17.718Z,99470.06
2022-07-29T08:29:10.334Z,99472.06
2022-07-29T08:32:02.633Z,99473.17
2022-07-29T08:34:55.205Z,99478.94
2022-07-29T08:37:37.266Z,99482.70
2022-07-29T08:40:31.936Z,99476.40
2022-07-29T08:43:25.088Z,99478.21
2022-07-29T08:46:18.158Z,99473.85
2022-07-29T08:49:10.669Z,99468.09
2022-07-29T08:52:03.714Z,99467.94
2022-07-29T08:54:57.025Z,99469.84
2022-07-29T08:57:52.033Z,99468.21
2022-07-29T09:00:51.564Z,99471.23
2022-07-29T09:03:45.836Z,99468.53
2022-07-29T09:06:39.561Z,99461.89
2022-07-29T09:09:32.426Z,99460.75
2022-07-29T09:12:28.809Z,99454.49
2022-07-29T09:15:22.533Z,99449.77
2022-07-29T09:18:30.333Z,99450.38
2022-07-29T09:21:34.969Z,99447.77
2022-07-29T09:24:28.349Z,99444.91
2022-07-29T09:27:27.491Z,99442.99
2022-07-29T09:30:30.305Z,99439.71
2022-07-29T09:33:24.899Z,99443.48
2022-07-29T09:36:17.840Z,99434.48
2022-07-29T09:39:10.440Z,99428.48
2022-07-29T09:42:04.323Z,99422.08
2022-07-29T09:44:56.383Z,99421.27
2022-07-29T09:47:50.290Z,99417.80
2022-07-29T09:50:44.917Z,99416.19
2022-07-29T09:53:38.455Z,99416.56
2022-07-29T09:56:43.517Z,99412.69
2022-07-29T09:59:15.628Z,99409.80
2022-07-29T10:01:52.348Z,99406.90
2022-07-29T10:04:45.242Z,99405.67
2022-07-29T10:07:53.958Z,99406.42
2022-07-29T10:10:46.732Z,99402.55
2022-07-29T10:13:29.834Z,99401.88
2022-07-29T10:16:22.017Z,99399.36
2022-07-29T10:19:17.015Z,99398.84
2022-07-29T10:22:11.534Z,99393.88
2022-07-29T10:25:03.709Z,99396.83
2022-07-29T10:27:56.285Z,99402.59
2022-07-29T10:30:52.245Z,99404.77
2022-07-29T10:33:55.436Z,99402.62
2022-07-29T10:40:23.669Z,99399.23
2022-07-29T10:42:57.782Z,99397.41
2022-07-29T10:45:51.667Z,99399.77
2022-07-29T10:49:08.134Z,99396.55
2022-07-29T10:52:03.554Z,99396.10
2022-07-29T10:55:01.371Z,99395.13
2022-07-29T10:58:15.118Z,99397.00
2022-07-29T11:01:37.145Z,99394.23
2022-07-29T11:05:04.353Z,99391.50
2022-07-29T11:08:27.881Z,99393.03
2022-07-29T11:11:35.343Z,99399.06
2022-07-29T11:15:00.337Z,99394.36
2022-07-29T11:18:15.061Z,99391.11
2022-07-29T11:21:55.177Z,99386.57
2022-07-29T11:25:16.947Z,99384.78
2022-07-29T11:28:23.046Z,99377.48
2022-07-29T11:31:18.272Z,99377.52
2022-07-29T11:33:56.180Z,99376.16
2022-07-29T11:37:28.264Z,99373.05
2022-07-29T11:40:23.031Z,99366.90
2022-07-29T11:42:55.523Z,99366.16
2022-07-29T11:45:50.162Z,99362.46
2022-07-29T11:48:35.002Z,99357.69
2022-07-29T11:51:32.869Z,99355.21
2022-07-29T11:54:28.775Z,99354.38
2022-07-29T11:57:22.185Z,99353.80
2022-07-29T12:00:22.635Z,99351.81
2022-07-29T12:03:35.436Z,99347.14
2022-07-29T12:06:40.550Z,99346.78
2022-07-29T12:09:40.250Z,99345.09
2022-07-29T12:12:33.668Z,99338.95
2022-07-29T12:15:31.533Z,99329.73
2022-07-29T12:18:32.138Z,99328.20
2022-07-29T12:21:15.016Z,99327.70
2022-07-29T12:24:09.013Z,99327.67
2022-07-29T12:27:02.461Z,99325.95
2022-07-29T12:30:02.651Z,99320.30
2022-07-29T12:32:54.949Z,99308.04
2022-07-29T12:36:03.437Z,99305.17
2022-07-29T12:38:48.589Z,99302.48
2022-07-29T12:41:40.986Z,99301.17
2022-07-29T12:44:47.496Z,99301.72
2022-07-29T12:47:56.289Z,99297.55
2022-07-29T12:51:02.363Z,99292.38
2022-07-29T12:54:08.116Z,99283.40
2022-07-29T12:57:05.269Z,99278.28
2022-07-29T13:00:05.887Z,99272.19
2022-07-29T13:03:01.853Z,99266.57
2022-07-29T13:05:49.578Z,99269.48
2022-07-29T13:08:31.628Z,99266.05
2022-07-29T13:11:34.472Z,99264.89
2022-07-29T13:14:37.943Z,99261.92
2022-07-29T13:17:32.691Z,99260.33
2022-07-29T13:20:28.553Z,99260.66
2022-07-29T13:23:20.627Z,99260.89
2022-07-29T13:26:14.130Z,99256.61
2022-07-29T13:29:06.520Z,99255.56
2022-07-29T13:31:58.943Z,99251.43
2022-07-29T13:34:51.543Z,99244.50
2022-07-29T13:37:43.834Z,99245.50
2022-07-29T13:40:36.405Z,99242.95
2022-07-29T13:43:18.307Z,99237.21
2022-07-29T13:46:10.655Z,99237.17
2022-07-29T13:49:02.851Z,99235.48
2022-07-29T13:51:55.935Z,99234.95
2022-07-29T13:54:46.913Z,99231.14
2022-07-29T13:57:39.017Z,99229.02
2022-07-29T14:00:13.140Z,99225.21
2022-07-29T14:03:04.352Z,99219.83
2022-07-29T14:05:57.390Z,99220.20
2022-07-29T14:08:49.363Z,99218.83
2022-07-29T14:11:41.553Z,99217.83
2022-07-29T14:14:33.741Z,99214.75
2022-07-29T14:17:25.897Z,99217.21
2022-07-29T14:20:18.104Z,99209.17
2022-07-29T14:23:10.194Z,99207.60
2022-07-29T14:26:03.188Z,99206.61
2022-07-29T14:29:00.671Z,99205.77
2022-07-29T14:31:52.703Z,99206.56
2022-07-29T14:34:44.774Z,99195.16
2022-07-29T14:37:40.062Z,99189.17
2022-07-29T14:40:32.687Z,99186.05
2022-07-29T14:43:24.894Z,99181.79
2022-07-29T14:46:01.995Z,99177.38
2022-07-29T14:48:56.184Z,99176.44
2022-07-29T14:51:48.919Z,99175.29
2022-07-29T14:54:40.949Z,99169.60
2022-07-29T14:57:33.300Z,99161.44
2022-07-29T15:00:25.785Z,99164.71
2022-07-29T15:03:22.989Z,99160.81
2022-07-29T15:06:16.700Z,99156.55
2022-07-29T15:09:08.801Z,99158.55
2022-07-29T15:12:01.226Z,99151.89
2022-07-29T15:14:53.670Z,99152.21
2022-07-29T15:17:46.591Z,99152.77
2022-07-29T15:20:38.929Z,99151.49
2022-07-29T15:23:30.924Z,99152.54
2022-07-29T15:26:23.369Z,99148.83
2022-07-29T15:29:15.459Z,99150.60
2022-07-29T15:32:09.884Z,99153.48
2022-07-29T15:34:51.907Z,99147.63
2022-07-29T15:37:26.944Z,99140.80
2022-07-29T15:40:42.233Z,99137.33
2022-07-29T15:43:35.831Z,99137.20
2022-07-29T15:46:45.061Z,99136.48
2022-07-29T15:49:46.576Z,99140.86
2022-07-29T15:52:26.355Z,99146.98
2022-07-29T15:55:19.087Z,99148.06
2022-07-29T15:57:51.142Z,99147.48
2022-07-29T16:00:43.162Z,99147.88
2022-07-29T16:03:35.327Z,99153.05
2022-07-29T16:06:27.406Z,99153.91
2022-07-29T16:09:19.933Z,99157.36
2022-07-29T16:12:14.806Z,99158.65
2022-07-29T16:15:10.484Z,99155.20
2022-07-29T16:18:02.785Z,99156.20
2022-07-29T16:20:56.144Z,99156.45
2022-07-29T16:23:46.934Z,99157.17
2022-07-29T16:26:39.217Z,99156.20
2022-07-29T16:29:31.218Z,99161.09
2022-07-29T16:32:23.312Z,99157.56
2022-07-29T16:35:15.406Z,99156.04
2022-07-29T16:38:07.410Z,99159.23
2022-07-29T16:40:59.419Z,99158.95
2022-07-29T16:43:52.623Z,99159.14
2022-07-29T16:46:46.740Z,99168.68
2022-07-29T16:49:34.359Z,99166.24
2022-07-29T16:52:26.669Z,99165.59
2022-07-29T16:55:18.751Z,99162.15
2022-07-29T16:58:11.230Z,99166.42
2022-07-29T17:01:03.568Z,99166.00
2022-07-29T17:04:07.871Z,99167.79
2022-07-29T17:07:00.699Z,99169.70
2022-07-29T17:09:55.917Z,99175.84
2022-07-29T17:12:49.466Z,99177.38
2022-07-29T17:15:42.571Z,99173.86
2022-07-29T17:18:24.601Z,99173.08
2022-07-29T17:21:17.632Z,99174.36
2022-07-29T17:24:10.504Z,99177.51
2022-07-29T17:26:50.999Z,99181.14
2022-07-29T17:29:43.393Z,99185.02
2022-07-29T17:32:38.647Z,99187.08
2022-07-29T17:35:48.453Z,99189.17
2022-07-29T17:38:40.484Z,99182.77
2022-07-29T17:41:32.628Z,99180.95
2022-07-29T17:44:24.612Z,99176.14
2022-07-29T17:47:16.764Z,99181.59
2022-07-29T17:50:10.003Z,99180.02
2022-07-29T17:52:50.844Z,99177.69
2022-07-29T17:55:41.630Z,99177.05
2022-07-29T17:58:33.679Z,99182.92
2022-07-29T18:01:25.806Z,99185.15
2022-07-29T18:04:21.049Z,99183.06
2022-07-29T18:07:13.085Z,99186.87
2022-07-29T18:10:05.578Z,99186.81
2022-07-29T18:12:50.632Z,99186.92
2022-07-29T18:15:42.968Z,99191.94
2022-07-29T18:18:35.129Z,99191.21
2022-07-29T18:21:42.691Z,99189.29
2022-07-29T18:24:40.846Z,99192.15
2022-07-29T18:27:32.991Z,99187.19
2022-07-29T18:30:25.017Z,99194.64
2022-07-29T18:33:21.676Z,99192.56
2022-07-29T18:36:14.270Z,99195.17
2022-07-29T18:39:06.366Z,99200.26
2022-07-29T18:41:58.419Z,99202.23
2022-07-29T18:44:50.818Z,99204.19
2022-07-29T18:47:42.899Z,99208.14
2022-07-29T18:50:40.643Z,99209.94
2022-07-29T18:53:32.627Z,99209.70
2022-07-29T18:56:30.547Z,99208.73
2022-07-29T18:59:22.537Z,99210.08
2022-07-29T19:02:16.694Z,99212.94
2022-07-29T19:04:51.981Z,99214.95
2022-07-29T19:07:43.958Z,99218.57
2022-07-29T19:10:25.763Z,99219.68
2022-07-29T19:13:17.840Z,99220.14
2022-07-29T19:15:49.685Z,99220.45
2022-07-29T19:18:43.177Z,99222.70
2022-07-29T19:21:35.343Z,99223.89
2022-07-29T19:24:28.555Z,99223.85
2022-07-29T19:27:20.775Z,99223.29
2022-07-29T19:30:13.847Z,99223.21
2022-07-29T19:32:55.827Z,99225.30
2022-07-29T19:35:52.874Z,99228.13
2022-07-29T19:38:46.677Z,99227.15
2022-07-29T19:41:39.309Z,99227.98
2022-07-29T19:44:29.927Z,99231.64
2022-07-29T19:47:21.898Z,99233.70
2022-07-29T19:50:15.256Z,99233.77
2022-07-29T19:52:49.908Z,99231.19
2022-07-29T19:55:34.808Z,99226.36
2022-07-29T19:58:27.199Z,99229.73
2022-07-29T20:01:20.336Z,99228.52
2022-07-29T20:04:12.364Z,99230.34
2022-07-29T20:07:04.564Z,99236.48
2022-07-29T20:09:36.646Z,99239.89
2022-07-29T20:12:28.669Z,99247.48
2022-07-29T20:15:20.650Z,99250.03
2022-07-29T20:18:12.778Z,99248.91
2022-07-29T20:21:06.406Z,99252.20
2022-07-29T20:24:00.455Z,99253.25
2022-07-29T20:26:52.545Z,99253.15
2022-07-29T20:29:45.777Z,99254.23
2022-07-29T20:32:37.782Z,99251.84
2022-07-29T20:35:30.215Z,99251.10
2022-07-29T20:38:22.182Z,99254.49
2022-07-29T20:41:14.904Z,99249.73
2022-07-29T20:44:07.419Z,99245.83
2022-07-29T20:46:59.547Z,99247.96
2022-07-29T20:49:51.869Z,99242.36
2022-07-29T20:52:44.577Z,99242.63
2022-07-29T20:55:26.661Z,99244.02
2022-07-29T20:58:19.836Z,99247.52
2022-07-29T21:01:12.278Z,99243.08
2022-07-29T21:03:54.234Z,99241.20
2022-07-29T21:06:46.340Z,99238.67
2022-07-29T21:09:38.653Z,99241.23
2022-07-29T21:12:30.832Z,99247.70
2022-07-29T21:15:24.355Z,99249.05
2022-07-29T21:18:28.103Z,99250.15
2022-07-29T21:21:20.428Z,99246.02
2022-07-29T21:24:13.811Z,99245.59
2022-07-29T21:27:23.764Z,99250.30
2022-07-29T21:30:16.225Z,99249.20
2022-07-29T21:33:08.428Z,99252.42
2022-07-29T21:36:42.319Z,99251.84
2022-07-29T21:39:12.705Z,99256.63
2022-07-29T21:42:07.411Z,99255.81
2022-07-29T21:44:59.376Z,99256.66
2022-07-29T21:47:51.479Z,99253.45
2022-07-29T21:50:43.465Z,99249.61
2022-07-29T21:53:36.797Z,99243.25
2022-07-29T21:56:30.195Z,99235.45
2022-07-29T21:59:23.522Z,99234.77
2022-07-29T22:02:18.778Z,99240.48
2022-07-29T22:05:12.281Z,99246.59
2022-07-29T22:08:04.452Z,99244.24
2022-07-29T22:10:56.556Z,99237.24
2022-07-29T22:13:48.630Z,99233.42
2022-07-29T22:16:40.833Z,99228.27
2022-07-29T22:19:32.871Z,99224.23
2022-07-29T22:22:25.110Z,99220.91
2022-07-29T22:25:17.824Z,99218.08
2022-07-29T22:28:11.101Z,99219.20
2022-07-29T22:31:03.367Z,99218.02
2022-07-29T22:33:55.963Z,99212.34
2022-07-29T22:36:48.014Z,99210.05
2022-07-29T22:39:40.121Z,99203.14
2022-07-29T22:42:31.851Z,99199.14
2022-07-29T22:45:24.326Z,99189.98
2022-07-29T22:48:16.294Z,99189.58
2022-07-29T22:51:08.431Z,99186.21
2022-07-29T22:54:02.233Z,99193.30
2022-07-29T22:56:54.347Z,99196.21
2022-07-29T22:59:46.393Z,99194.19
2022-07-29T23:02:38.382Z,99190.29
2022-07-29T23:05:23.495Z,99184.00
2022-07-29T23:08:16.060Z,99178.84
2022-07-29T23:10:59.067Z,99174.96
2022-07-29T23:13:51.221Z,99175.64
2022-07-29T23:16:43.422Z,99173.11
2022-07-29T23:19:38.617Z,99162.20
2022-07-29T23:22:21.624Z,99149.25
2022-07-29T23:25:13.730Z,99151.13
2022-07-29T23:28:05.977Z,99151.02
2022-07-29T23:31:03.534Z,99151.17
2022-07-29T23:33:55.611Z,99147.90
2022-07-29T23:36:47.688Z,99147.35
2022-07-29T23:39:39.683Z,99146.64
2022-07-29T23:42:31.702Z,99140.52
2022-07-29T23:45:42.418Z,99138.19
2022-07-29T23:48:36.158Z,99138.60
2022-07-29T23:51:29.318Z,99139.81
2022-07-29T23:54:13.832Z,99145.79
2022-07-29T23:57:06.088Z,99149.16
2022-07-29T23:59:58.140Z,99150.19
